createdAt,value
2018-01-31T01:52:52.879Z,3.33
2018-01-31T01:55:19.233Z,3.60
2018-01-31T01:57:45.588Z,3.50
2018-01-31T02:00:12.672Z,2.97
2018-01-31T02:02:39.043Z,3.73
2018-01-31T02:05:05.369Z,3.20
2018-01-31T02:07:31.716Z,3.03
2018-01-31T02:09:58.085Z,3.60
2018-01-31T02:12:24.410Z,3.33
2018-01-31T02:14:50.752Z,3.40
2018-01-31T02:17:17.107Z,3.10
2018-01-31T02:19:44.205Z,3.80
2018-01-31T02:22:10.540Z,2.70
2018-01-31T02:24:36.892Z,3.20
2018-01-31T02:27:03.265Z,3.33
2018-01-31T02:29:29.594Z,3.00
2018-01-31T02:31:55.952Z,3.10
2018-01-31T02:34:23.035Z,2.77
2018-01-31T02:36:49.382Z,2.80
2018-01-31T02:39:34.207Z,2.93
2018-01-31T02:42:01.277Z,3.13
2018-01-31T02:44:27.608Z,2.70
2018-01-31T02:46:53.960Z,2.90
2018-01-31T02:49:20.299Z,2.90
2018-01-31T02:51:46.631Z,2.53
2018-01-31T02:54:12.985Z,2.60
2018-01-31T02:56:39.314Z,2.60
2018-01-31T02:59:05.639Z,2.77
2018-01-31T03:01:31.974Z,3.07
2018-01-31T03:03:58.327Z,2.60
2018-01-31T03:06:24.657Z,2.80
2018-01-31T03:08:51.035Z,2.60
2018-01-31T03:11:17.362Z,2.50
2018-01-31T03:13:43.700Z,2.40
2018-01-31T03:16:10.099Z,2.63
2018-01-31T03:18:36.426Z,2.40
2018-01-31T03:21:02.760Z,2.70
2018-01-31T03:23:29.132Z,2.50
2018-01-31T03:25:55.467Z,2.40
2018-01-31T03:28:21.795Z,2.37
2018-01-31T03:30:48.148Z,2.10
2018-01-31T03:33:14.475Z,2.33
2018-01-31T03:35:40.804Z,2.07
2018-01-31T03:38:07.204Z,2.27
2018-01-31T03:40:33.539Z,2.33
2018-01-31T03:43:00.212Z,2.20
2018-01-31T03:45:26.578Z,2.10
2018-01-31T03:47:52.923Z,2.30
2018-01-31T03:50:19.251Z,2.10
2018-01-31T03:52:45.604Z,2.03
2018-01-31T03:55:11.924Z,2.40
2018-01-31T03:57:38.277Z,2.07
2018-01-31T04:00:04.667Z,1.70
2018-01-31T04:02:31.004Z,1.90
2018-01-31T04:04:57.340Z,1.97
2018-01-31T04:07:23.683Z,2.40
2018-01-31T04:09:50.018Z,2.03
2018-01-31T04:12:16.360Z,2.27
2018-01-31T04:14:42.729Z,2.20
2018-01-31T04:17:09.091Z,1.90
2018-01-31T04:19:36.161Z,1.70
2018-01-31T04:22:02.544Z,1.80
2018-01-31T04:24:28.890Z,1.87
2018-01-31T04:26:55.215Z,2.10
2018-01-31T04:29:21.556Z,2.00
2018-01-31T04:31:49.367Z,1.60
2018-01-31T04:34:15.695Z,1.80
2018-01-31T04:36:42.790Z,1.70
2018-01-31T04:39:09.112Z,1.90
2018-01-31T04:41:35.448Z,1.73
2018-01-31T04:44:01.805Z,1.90
2018-01-31T04:46:28.136Z,1.60
2018-01-31T04:48:54.472Z,1.60
2018-01-31T04:51:20.844Z,1.70
2018-01-31T04:53:47.171Z,1.70
2018-01-31T04:56:13.517Z,1.70
2018-01-31T04:58:39.863Z,1.50
2018-01-31T05:01:06.932Z,1.70
2018-01-31T05:03:34.008Z,1.43
2018-01-31T05:06:00.352Z,1.50
2018-01-31T05:08:26.683Z,1.30
2018-01-31T05:10:53.041Z,1.43
2018-01-31T05:13:19.384Z,1.10
2018-01-31T05:15:45.719Z,1.20
2018-01-31T05:18:12.072Z,1.10
2018-01-31T05:20:38.526Z,1.20
2018-01-31T05:23:05.612Z,1.40
2018-01-31T05:25:31.931Z,1.40
2018-01-31T05:27:59.027Z,1.20
2018-01-31T05:30:25.352Z,1.30
2018-01-31T05:32:51.696Z,1.10
2018-01-31T05:35:18.048Z,1.03
2018-01-31T05:37:44.389Z,1.00
2018-01-31T05:40:11.650Z,1.67
2018-01-31T05:42:37.986Z,1.10
2018-01-31T05:45:04.329Z,1.00
2018-01-31T05:47:30.669Z,1.50
2018-01-31T05:49:57.072Z,1.20
2018-01-31T05:52:23.396Z,0.90
2018-01-31T05:54:49.745Z,1.20
2018-01-31T05:57:16.143Z,1.00
2018-01-31T05:59:42.460Z,1.23
2018-01-31T06:02:08.805Z,1.37
2018-01-31T06:04:35.929Z,1.37
2018-01-31T06:07:02.276Z,1.07
2018-01-31T06:09:28.611Z,1.37
2018-01-31T06:11:54.951Z,1.50
2018-01-31T06:14:21.301Z,1.00
2018-01-31T06:16:48.399Z,1.50
2018-01-31T06:19:14.780Z,1.20
2018-01-31T06:21:41.123Z,1.10
2018-01-31T06:24:07.542Z,0.97
2018-01-31T06:26:33.886Z,1.00
2018-01-31T06:29:01.000Z,1.23
2018-01-31T06:31:27.343Z,1.20
2018-01-31T06:33:53.716Z,1.17
2018-01-31T06:36:20.800Z,1.30
2018-01-31T06:38:47.878Z,1.20
2018-01-31T06:41:14.271Z,1.40
2018-01-31T06:43:41.348Z,1.27
2018-01-31T06:46:08.464Z,1.10
2018-01-31T06:48:34.811Z,1.00
2018-01-31T06:51:01.140Z,1.53
2018-01-31T06:53:27.472Z,0.93
2018-01-31T06:55:53.835Z,0.90
2018-01-31T06:58:20.908Z,1.77
2018-01-31T07:00:47.256Z,1.23
2018-01-31T07:03:13.648Z,1.10
2018-01-31T07:05:40.004Z,1.70
2018-01-31T07:08:07.102Z,0.93
2018-01-31T07:10:33.505Z,1.40
2018-01-31T07:13:00.572Z,1.07
2018-01-31T07:15:26.929Z,0.90
2018-01-31T07:17:53.383Z,1.13
2018-01-31T07:20:19.770Z,1.33
2018-01-31T07:22:46.840Z,1.53
2018-01-31T07:25:13.255Z,1.20
2018-01-31T07:27:40.343Z,1.23
2018-01-31T07:30:06.778Z,1.17
2018-01-31T07:32:33.116Z,0.90
2018-01-31T07:34:59.446Z,1.60
2018-01-31T07:37:25.826Z,1.13
2018-01-31T07:39:52.178Z,1.03
2018-01-31T07:42:18.516Z,1.20
2018-01-31T07:44:44.892Z,1.30
2018-01-31T07:47:11.227Z,1.00
2018-01-31T07:49:37.568Z,1.07
2018-01-31T07:52:03.976Z,1.50
2018-01-31T07:54:31.069Z,1.60
2018-01-31T07:56:57.420Z,1.47
2018-01-31T07:59:23.798Z,1.90
2018-01-31T08:01:50.953Z,1.23
2018-01-31T08:04:18.048Z,1.70
2018-01-31T08:06:44.440Z,1.13
2018-01-31T08:09:10.792Z,0.90
2018-01-31T08:11:37.904Z,0.93
2018-01-31T08:14:13.256Z,1.40
2018-01-31T08:16:39.636Z,1.37
2018-01-31T08:19:06.018Z,1.03
2018-01-31T08:21:32.368Z,0.80
2018-01-31T08:23:58.829Z,1.13
2018-01-31T08:26:25.924Z,0.97
2018-01-31T08:28:52.306Z,0.90
2018-01-31T08:31:18.652Z,1.10
2018-01-31T08:33:45.064Z,1.00
2018-01-31T08:36:11.422Z,1.10
2018-01-31T08:38:38.519Z,1.10
2018-01-31T08:41:04.919Z,1.30
2018-01-31T08:43:31.320Z,1.07
2018-01-31T08:45:57.669Z,1.17
2018-01-31T08:48:24.123Z,1.93
2018-01-31T08:50:50.488Z,1.10
2018-01-31T08:53:17.659Z,1.10
2018-01-31T08:55:44.075Z,1.13
2018-01-31T08:58:11.180Z,1.47
2018-01-31T09:00:37.564Z,1.50
2018-01-31T09:03:04.723Z,1.00
2018-01-31T09:05:31.889Z,1.40
2018-01-31T09:07:58.265Z,1.50
2018-01-31T09:10:24.600Z,1.97
2018-01-31T09:12:50.996Z,2.27
2018-01-31T09:15:18.147Z,1.87
2018-01-31T09:17:45.279Z,0.97
2018-01-31T09:20:11.700Z,1.20
2018-01-31T09:22:38.131Z,1.30
2018-01-31T09:25:04.575Z,1.80
2018-01-31T09:27:30.955Z,1.47
2018-01-31T09:29:58.060Z,1.90
2018-01-31T09:32:24.463Z,1.33
2018-01-31T09:34:50.855Z,1.70
2018-01-31T09:37:17.254Z,1.97
2018-01-31T09:39:43.625Z,1.60
2018-01-31T09:42:09.985Z,1.27
2018-01-31T09:44:37.127Z,1.43
2018-01-31T09:47:03.532Z,1.20
2018-01-31T09:49:29.915Z,1.50
2018-01-31T09:52:03.172Z,1.20
2018-01-31T09:54:29.542Z,1.27
2018-01-31T09:56:55.887Z,1.67
2018-01-31T09:59:22.981Z,1.40
2018-01-31T10:01:49.303Z,1.30
2018-01-31T10:04:15.673Z,1.30
2018-01-31T10:06:42.055Z,1.60
2018-01-31T10:09:09.197Z,1.60
2018-01-31T10:11:35.524Z,1.63
2018-01-31T10:14:01.865Z,2.20
2018-01-31T10:16:28.229Z,1.70
2018-01-31T10:18:54.573Z,1.73
2018-01-31T10:21:27.900Z,1.63
2018-01-31T10:23:54.225Z,1.60
2018-01-31T10:26:20.568Z,1.40
2018-01-31T10:28:46.929Z,1.90
2018-01-31T10:31:13.312Z,1.60
2018-01-31T10:33:39.712Z,1.60
2018-01-31T10:36:13.112Z,1.30
2018-01-31T10:38:39.463Z,1.47
2018-01-31T10:41:06.595Z,1.20
2018-01-31T10:43:32.938Z,1.10
2018-01-31T10:45:59.340Z,1.40
2018-01-31T10:48:25.721Z,0.93
2018-01-31T10:50:52.066Z,1.60
2018-01-31T10:53:19.205Z,1.40
2018-01-31T10:58:11.999Z,1.03
2018-01-31T11:00:39.085Z,1.50
2018-01-31T11:03:05.506Z,1.20
2018-01-31T11:05:32.637Z,1.00
2018-01-31T11:07:59.017Z,1.70
2018-01-31T11:10:25.444Z,1.47
2018-01-31T11:12:51.839Z,1.40
2018-01-31T11:15:18.224Z,1.50
2018-01-31T11:17:44.631Z,1.53
2018-01-31T11:20:11.795Z,1.80
2018-01-31T11:22:38.922Z,1.93
2018-01-31T11:25:05.293Z,2.00
2018-01-31T11:27:31.680Z,1.60
2018-01-31T11:29:58.043Z,1.97
2018-01-31T11:32:24.394Z,2.00
2018-01-31T11:34:51.528Z,2.10
2018-01-31T11:37:17.926Z,1.80
2018-01-31T11:39:44.328Z,2.43
2018-01-31T11:42:11.410Z,2.40
2018-01-31T11:44:37.741Z,2.23
2018-01-31T11:47:04.103Z,2.40
2018-01-31T11:49:30.444Z,1.97
2018-01-31T11:51:56.807Z,2.53
2018-01-31T11:54:23.227Z,2.93
2018-01-31T11:56:49.608Z,2.33
2018-01-31T11:59:16.720Z,2.20
2018-01-31T12:01:43.122Z,3.03
2018-01-31T12:04:09.468Z,2.40
2018-01-31T12:06:35.814Z,3.00
2018-01-31T12:09:02.243Z,2.63
2018-01-31T12:11:28.601Z,2.30
2018-01-31T12:17:15.632Z,1.77
2018-01-31T12:20:12.160Z,1.80
2018-01-31T12:22:57.085Z,2.30
2018-01-31T12:25:41.808Z,2.40
2018-01-31T12:28:26.596Z,1.83
2018-01-31T12:31:13.111Z,2.07
2018-01-31T12:33:57.964Z,1.57
2018-01-31T12:36:43.377Z,1.70
2018-01-31T12:39:10.200Z,1.37
2018-01-31T12:41:36.240Z,1.40
2018-01-31T12:44:02.285Z,1.80
2018-01-31T12:46:47.845Z,2.03
2018-01-31T12:52:46.948Z,1.30
2018-01-31T12:55:32.652Z,1.40
2018-01-31T13:01:43.626Z,1.70
2018-01-31T13:04:28.715Z,1.60
2018-01-31T13:07:13.700Z,1.20
2018-01-31T13:09:59.119Z,1.20
2018-01-31T13:12:43.961Z,1.30
2018-01-31T13:15:28.815Z,1.40
2018-01-31T13:17:56.969Z,1.50
2018-01-31T13:20:42.724Z,1.60
2018-01-31T13:23:09.075Z,1.40
2018-01-31T13:25:53.908Z,1.30
2018-01-31T13:31:58.400Z,1.67
2018-01-31T13:34:43.148Z,1.20
2018-01-31T13:37:34.183Z,1.50
2018-01-31T13:43:28.165Z,1.60
2018-01-31T13:46:13.032Z,1.60
2018-01-31T13:48:58.095Z,1.73
2018-01-31T13:51:46.877Z,1.33
2018-01-31T13:54:31.508Z,1.10
2018-01-31T13:57:17.101Z,1.73
2018-01-31T14:00:02.051Z,1.17
2018-01-31T14:02:47.705Z,1.57
2018-01-31T14:05:34.236Z,1.20
2018-01-31T14:08:19.269Z,1.17
2018-01-31T14:11:04.888Z,1.40
2018-01-31T14:13:49.753Z,1.20
2018-01-31T14:16:34.332Z,1.50
2018-01-31T14:19:19.156Z,1.40
2018-01-31T14:22:03.997Z,1.40
2018-01-31T14:24:48.902Z,1.50
2018-01-31T14:27:33.607Z,1.10
2018-01-31T14:30:19.119Z,1.80
2018-01-31T14:33:03.853Z,1.50
2018-01-31T14:35:48.616Z,1.60
2018-01-31T14:38:14.657Z,1.53
2018-01-31T14:40:40.696Z,2.07
2018-01-31T14:43:06.763Z,1.50
2018-01-31T14:45:32.809Z,1.70
2018-01-31T14:47:58.881Z,1.60
2018-01-31T14:50:24.942Z,1.37
2018-01-31T14:52:51.000Z,2.00
2018-01-31T14:55:17.794Z,1.40
2018-01-31T14:57:43.904Z,1.23
2018-01-31T15:00:09.948Z,1.57
2018-01-31T15:02:35.985Z,1.30
2018-01-31T15:05:02.041Z,1.60
2018-01-31T15:07:28.072Z,1.63
2018-01-31T15:09:54.119Z,1.47
2018-01-31T15:12:20.940Z,1.40
2018-01-31T15:14:46.986Z,1.20
2018-01-31T15:17:13.034Z,1.43
2018-01-31T15:19:39.856Z,1.13
2018-01-31T15:22:05.900Z,1.10
2018-01-31T15:24:32.672Z,1.37
2018-01-31T15:26:58.786Z,1.30
2018-01-31T15:29:25.569Z,1.20
2018-01-31T15:31:51.617Z,1.20
2018-01-31T15:34:17.727Z,1.40
2018-01-31T15:36:43.815Z,1.37
2018-01-31T15:39:10.636Z,1.37
2018-01-31T15:41:36.680Z,1.70
2018-01-31T15:44:02.792Z,1.80
2018-01-31T15:46:28.881Z,1.50
2018-01-31T15:48:54.973Z,1.40
2018-01-31T15:51:21.168Z,1.20
2018-01-31T15:53:47.263Z,1.37
2018-01-31T15:56:14.097Z,1.20
2018-01-31T15:58:40.886Z,1.80
2018-01-31T16:01:06.959Z,1.90
2018-01-31T16:03:33.077Z,1.60
2018-01-31T16:05:59.157Z,1.47
2018-01-31T16:08:25.303Z,1.50
2018-01-31T16:10:51.353Z,1.47
2018-01-31T16:13:17.404Z,1.60
2018-01-31T16:15:43.600Z,1.40
2018-01-31T16:18:28.553Z,1.17
2018-01-31T16:21:13.442Z,1.30
2018-01-31T16:23:39.897Z,0.90
2018-01-31T16:26:06.303Z,1.20
2018-01-31T16:28:52.247Z,1.30
2018-01-31T16:34:27.676Z,1.13
2018-01-31T16:36:54.071Z,1.20
2018-01-31T16:39:20.513Z,1.23
2018-01-31T16:41:46.850Z,1.33
2018-01-31T16:44:13.510Z,2.23
2018-01-31T16:46:40.235Z,1.83
2018-01-31T16:49:06.761Z,1.50
2018-01-31T16:51:33.204Z,1.27
2018-01-31T16:53:59.563Z,1.53
2018-01-31T16:56:25.910Z,1.70
2018-01-31T16:58:52.276Z,1.47
2018-01-31T17:01:18.742Z,1.30
2018-01-31T17:03:45.091Z,1.50
2018-01-31T17:06:11.437Z,1.43
2018-01-31T17:08:37.836Z,1.50
2018-01-31T17:11:04.972Z,1.30
2018-01-31T17:13:31.324Z,1.40
2018-01-31T17:15:58.403Z,1.27
2018-01-31T17:18:24.804Z,1.03
2018-01-31T17:20:51.419Z,1.20
2018-01-31T17:23:17.786Z,1.30
2018-01-31T17:25:58.547Z,1.33
2018-01-31T17:28:25.684Z,1.20
2018-01-31T17:30:52.081Z,1.30
2018-01-31T17:33:18.503Z,1.00
2018-01-31T17:35:44.867Z,1.10
2018-01-31T17:38:11.228Z,1.27
2018-01-31T17:40:37.640Z,1.20
2018-01-31T17:43:04.004Z,1.13
2018-01-31T17:45:30.424Z,1.40
2018-01-31T17:47:57.812Z,1.30
2018-01-31T17:50:24.190Z,1.00
2018-01-31T17:52:50.567Z,1.20
2018-01-31T17:55:16.912Z,1.50
2018-01-31T17:57:43.336Z,1.20
2018-01-31T18:00:09.744Z,1.40
2018-01-31T18:02:36.120Z,1.10
2018-01-31T18:11:06.439Z,1.50
2018-01-31T18:13:33.034Z,1.30
2018-01-31T18:16:00.136Z,1.30
2018-01-31T18:18:26.491Z,1.50
2018-01-31T18:20:52.868Z,1.70
2018-01-31T18:23:19.983Z,1.40
2018-01-31T18:25:46.359Z,1.30
2018-01-31T18:28:13.508Z,1.80
2018-01-31T18:30:39.917Z,1.50
2018-01-31T18:33:06.269Z,1.60
2018-01-31T18:35:32.649Z,1.60
2018-01-31T18:37:59.045Z,1.63
2018-01-31T18:40:25.396Z,1.57
2018-01-31T18:42:52.518Z,1.50
2018-01-31T18:45:19.018Z,2.03
2018-01-31T18:47:45.363Z,1.67
2018-01-31T18:50:11.707Z,1.60
2018-01-31T18:52:38.104Z,1.70
2018-01-31T18:55:05.215Z,2.23
2018-01-31T18:57:31.547Z,2.00
2018-01-31T18:59:57.984Z,2.40
2018-01-31T19:02:24.332Z,2.20
2018-01-31T19:04:50.760Z,1.60
2018-01-31T19:07:17.173Z,2.03
2018-01-31T19:09:43.528Z,2.70
2018-01-31T19:12:09.880Z,2.03
2018-01-31T19:14:36.282Z,2.13
2018-01-31T19:17:02.691Z,2.13
2018-01-31T19:19:29.037Z,2.20
2018-01-31T19:21:56.124Z,2.00
2018-01-31T19:24:22.495Z,1.93
2018-01-31T19:26:48.852Z,1.63
2018-01-31T19:29:15.222Z,2.53
2018-01-31T19:31:41.599Z,2.07
2018-01-31T19:34:07.955Z,2.30
2018-01-31T19:36:34.328Z,2.10
2018-01-31T19:39:00.682Z,2.37
2018-01-31T19:41:27.085Z,2.30
2018-01-31T19:43:54.216Z,2.43
2018-01-31T19:46:20.576Z,2.70
2018-01-31T19:48:47.666Z,2.33
2018-01-31T19:51:14.036Z,1.63
2018-01-31T19:53:40.431Z,1.63
2018-01-31T19:56:06.792Z,2.90
2018-01-31T19:58:33.179Z,2.30
2018-01-31T20:01:00.283Z,2.13
2018-01-31T20:03:26.655Z,1.93
2018-01-31T20:05:53.060Z,2.23
2018-01-31T20:08:19.412Z,2.20
2018-01-31T20:10:45.835Z,2.50
2018-01-31T20:16:09.145Z,2.07
2018-01-31T20:18:36.260Z,2.67
2018-01-31T20:21:02.664Z,2.37
2018-01-31T20:23:29.019Z,2.23
2018-01-31T20:25:55.365Z,1.83
2018-01-31T20:28:21.748Z,1.97
2018-01-31T20:33:29.318Z,1.80
2018-01-31T20:35:55.664Z,1.70
2018-01-31T20:38:22.038Z,2.20
2018-01-31T20:40:48.449Z,2.23
2018-01-31T20:43:14.796Z,1.90
2018-01-31T20:45:41.177Z,2.80
2018-01-31T20:48:08.322Z,2.00
2018-01-31T20:50:34.733Z,2.00
2018-01-31T20:53:01.904Z,2.20
2018-01-31T20:55:29.041Z,2.63
2018-01-31T20:57:55.379Z,2.60
2018-01-31T21:00:21.795Z,2.57
2018-01-31T21:02:48.140Z,2.40
2018-01-31T21:05:14.488Z,2.33
2018-01-31T21:07:40.921Z,2.47
2018-01-31T21:10:07.302Z,2.13
2018-01-31T21:12:33.660Z,2.10
2018-01-31T21:15:29.008Z,1.63
2018-01-31T21:17:55.383Z,2.90
2018-01-31T21:20:21.759Z,2.73
2018-01-31T21:22:48.156Z,2.50
2018-01-31T21:25:14.504Z,2.47
2018-01-31T21:27:40.852Z,2.77
2018-01-31T21:30:07.234Z,2.40
2018-01-31T21:32:33.584Z,2.80
2018-01-31T21:35:00.667Z,1.93
2018-01-31T21:37:27.069Z,2.10
2018-01-31T21:39:54.188Z,2.17
2018-01-31T21:42:20.531Z,2.47
2018-01-31T21:44:46.917Z,2.50
2018-01-31T21:47:13.275Z,2.20
2018-01-31T21:49:40.339Z,1.90
2018-01-31T21:52:06.727Z,2.20
2018-01-31T21:54:33.886Z,2.63
2018-01-31T21:57:00.964Z,2.20
2018-01-31T21:59:27.360Z,2.63
2018-01-31T22:01:53.773Z,2.57
2018-01-31T22:04:20.119Z,2.80
2018-01-31T22:06:46.512Z,2.30
2018-01-31T22:09:12.960Z,2.87
2018-01-31T22:11:39.362Z,2.37
2018-01-31T22:14:06.503Z,2.63
2018-01-31T22:16:32.876Z,1.63
2018-01-31T22:18:59.263Z,1.90
2018-01-31T22:21:25.599Z,2.33
2018-01-31T22:23:51.981Z,1.80
2018-01-31T22:26:18.326Z,1.90
2018-01-31T22:28:44.679Z,1.93
2018-01-31T22:31:11.034Z,2.00
2018-01-31T22:33:37.380Z,1.77
2018-01-31T22:36:03.739Z,2.00
2018-01-31T22:38:30.103Z,2.27
2018-01-31T22:40:56.431Z,2.20
2018-01-31T22:43:23.504Z,1.50
2018-01-31T22:45:49.881Z,1.97
2018-01-31T22:48:16.224Z,1.93
2018-01-31T22:50:43.321Z,2.00
2018-01-31T22:53:09.716Z,1.80
2018-01-31T22:55:36.084Z,1.97
2018-01-31T22:58:02.462Z,1.77
2018-01-31T23:00:35.739Z,1.83
2018-01-31T23:03:02.103Z,1.47
2018-01-31T23:05:28.455Z,1.73
2018-01-31T23:07:54.838Z,1.70
2018-01-31T23:10:21.183Z,1.60
2018-01-31T23:15:46.883Z,1.87
2018-01-31T23:18:17.917Z,1.30
2018-01-31T23:20:45.020Z,1.80
2018-01-31T23:23:11.380Z,1.67
2018-01-31T23:25:37.775Z,1.30
2018-01-31T23:28:04.111Z,1.50
2018-01-31T23:30:30.512Z,1.70
2018-01-31T23:32:56.840Z,1.40
2018-01-31T23:35:23.193Z,1.60
2018-01-31T23:37:49.562Z,1.67
2018-01-31T23:40:15.902Z,1.50
2018-01-31T23:42:42.243Z,1.53
2018-01-31T23:45:08.603Z,1.53
2018-01-31T23:47:34.938Z,1.57
2018-01-31T23:50:01.275Z,1.57
2018-01-31T23:52:27.616Z,1.70
2018-01-31T23:54:53.970Z,1.57
2018-01-31T23:57:20.308Z,1.70
2018-01-31T23:59:46.672Z,1.50
